Aérodrome :
LOGIN :

S'inscrire | Disclaimer

   EN    FR    IT 

 










Légende :    VFR   VFR Marginal   IFR   IFR Intensif   IFR Très Intensif
Visi : 
Plafond : 
>= 8 km
>= 3000ft
5 à 8 km
1000 à 3000 ft
1500m à 5 km
500 à 1000 ft
800 à 1500m
200 à 500 ft
< 800m
< 200 ft
Symboles :   Orages  Brouillard  Fortes neiges  Fortes précipitations  Vent > 20 kt
SIGMETs :   Divers  Orages  Givrage  Turbulence  Onde Orograph.  Cendres Volcan.







- Altitude de l'aérodrome : 1455 ft


ETIH - Hohenfels Army Air Field

DERNIER METAR :
  • 231158Z AUTO 07003KT 9999 BKN010 BKN014 OVC020 08/07 A3001 RMK AO2 BKN010 V OVC SLP174 51004

METARs EXPIRÉS :
  • 231135Z AUTO 00000KT 9999 OVC011 08/07 A3001 RMK AO2
  • 231120Z AUTO 07003KT 9999 BKN009 OVC014 08/07 A3001 RMK AO2 CIG 007V009
  • 231058Z AUTO VRB03KT 9999 OVC007 08/07 A3001 RMK AO2 SLP174
  • 231025Z AUTO 00000KT 9999 OVC007 07/07 A3001 RMK AO2
  • 231003Z AUTO 05003KT 9999 OVC006 07/07 A3001 RMK AO2
  • 230952Z AUTO 00000KT 9999 OVC007 07/07 A3001 RMK AO2 CIG 005V007
  • 230858Z AUTO 00000KT 9000 BR OVC005 06/06 A3000 RMK AO2 SLP173 52009

TAF AMD TAF ETIH
Valide du 23 à 11h jusqu'au 24 à 11h UTC


231145Z 2311/2411 10006KT 9999 BKN012 QNH2995INS
BECMG 2407/2408 07009KT 9999 SCT015 QNH3011INS TX11/2314Z TN04/2405Z
Pas de NOTAMs connus pour ce terrain.



MET'MAP, la Météo Aéronautique d'un coup d'oeil ! - Copyright ORBIFLY Décembre 2007 - Disclaimer

ORBIFLY MET'MAP TEAM :

Programmation & Développement : Alexandra Zaïnal
Conception & Développement : Baudouin d'Aumeries
Co-Programmation & Développement : Marc-Olivier Méhu
Soutien technique & logistique : Manuel Goepfert

Contact : metmap@orbifly.com




SOURCES & CREDITS :

   NOAA